createdAt,value
2023-02-03T00:02:27.262Z,5.60
2023-02-03T00:06:30.230Z,4.93
2023-02-03T00:10:33.787Z,5.10
2023-02-03T00:14:36.837Z,5.03
2023-02-03T00:18:38.626Z,6.80
2023-02-03T00:22:39.825Z,5.20
2023-02-03T00:26:44.219Z,5.50
2023-02-03T00:30:45.384Z,5.43
2023-02-03T00:34:46.569Z,5.43
2023-02-03T00:38:49.314Z,4.90
2023-02-03T00:42:50.670Z,5.83
2023-02-03T00:46:51.828Z,5.10
2023-02-03T00:50:52.975Z,4.77
2023-02-03T00:54:54.224Z,5.70
2023-02-03T00:58:55.277Z,5.40
2023-02-03T01:02:56.466Z,6.10
2023-02-03T01:06:59.000Z,5.50
2023-02-03T01:11:05.763Z,4.80
2023-02-03T01:15:07.532Z,4.93
2023-02-03T01:19:08.680Z,5.40
2023-02-03T01:23:09.858Z,4.30
2023-02-03T01:27:11.234Z,3.87
2023-02-03T01:31:18.664Z,3.70
2023-02-03T01:35:21.545Z,5.00
2023-02-03T01:39:22.715Z,3.77
2023-02-03T01:43:29.644Z,4.33
2023-02-03T01:47:46.457Z,4.00
2023-02-03T01:51:48.924Z,4.20
2023-02-03T01:55:50.915Z,3.53
2023-02-03T01:59:54.845Z,3.37
2023-02-03T02:03:58.912Z,3.40
2023-02-03T02:08:01.686Z,3.20
2023-02-03T02:12:03.099Z,3.63
2023-02-03T02:16:11.418Z,4.00
2023-02-03T02:20:34.973Z,3.20
2023-02-03T02:24:55.381Z,3.20
2023-02-03T02:29:20.271Z,3.90
2023-02-03T02:33:27.667Z,3.37
2023-02-03T02:37:51.067Z,3.03
2023-02-03T02:42:01.647Z,2.80
2023-02-03T02:46:12.370Z,3.50
2023-02-03T02:50:19.839Z,2.43
2023-02-03T02:54:24.597Z,2.50
2023-02-03T02:58:27.687Z,2.77
2023-02-03T03:02:34.890Z,2.67
2023-02-03T03:06:39.858Z,2.23
2023-02-03T03:10:42.852Z,2.43
2023-02-03T03:14:47.820Z,2.40
2023-02-03T03:18:52.814Z,2.23
2023-02-03T03:23:00.782Z,2.53
2023-02-03T03:27:14.428Z,2.77
2023-02-03T03:31:19.892Z,3.13
2023-02-03T03:35:22.367Z,2.67
2023-02-03T03:39:33.624Z,3.30
2023-02-03T03:43:38.479Z,3.23
2023-02-03T03:47:55.319Z,3.40
2023-02-03T03:52:00.256Z,2.87
2023-02-03T03:56:04.963Z,3.17
2023-02-03T04:00:09.584Z,2.90
2023-02-03T04:04:11.650Z,2.80
2023-02-03T04:08:12.902Z,2.43
2023-02-03T04:12:23.023Z,2.20
2023-02-03T04:16:24.207Z,1.83
2023-02-03T04:20:25.765Z,1.80
2023-02-03T04:24:27.089Z,1.77
2023-02-03T04:28:28.253Z,2.00
2023-02-03T04:32:30.405Z,1.60
2023-02-03T04:36:31.576Z,1.70
2023-02-03T04:40:34.913Z,2.13
2023-02-03T04:44:35.692Z,1.47
2023-02-03T04:48:37.149Z,1.80
2023-02-03T04:52:38.301Z,1.40
2023-02-03T04:56:39.779Z,1.60
2023-02-03T05:00:40.933Z,1.40
2023-02-03T05:04:42.093Z,1.47
2023-02-03T05:08:43.231Z,1.60
2023-02-03T05:12:44.506Z,1.33
2023-02-03T05:16:46.455Z,2.10
2023-02-03T05:20:47.740Z,2.37
2023-02-03T05:24:48.882Z,2.27
2023-02-03T05:28:51.103Z,2.40
2023-02-03T05:32:53.009Z,2.20
2023-02-03T05:36:54.261Z,2.27
2023-02-03T05:41:13.928Z,2.17
2023-02-03T05:45:15.956Z,2.27
2023-02-03T05:49:17.293Z,2.40
2023-02-03T05:53:18.470Z,2.63
2023-02-03T05:57:19.688Z,2.30
2023-02-03T06:01:20.974Z,2.30
2023-02-03T06:05:22.789Z,2.47
2023-02-03T06:09:23.961Z,2.20
2023-02-03T06:13:25.312Z,2.23
2023-02-03T06:17:26.465Z,2.43
2023-02-03T06:21:28.212Z,2.50
2023-02-03T06:25:31.924Z,2.73
2023-02-03T06:29:33.097Z,2.30
2023-02-03T06:33:34.282Z,2.80
2023-02-03T06:37:35.550Z,3.43
2023-02-03T06:41:36.719Z,4.07
2023-02-03T06:45:37.838Z,3.10
2023-02-03T06:49:38.902Z,3.10
2023-02-03T06:53:40.051Z,3.83
2023-02-03T06:57:46.333Z,3.50
2023-02-03T07:01:47.546Z,2.97
2023-02-03T07:05:48.646Z,2.60
2023-02-03T07:09:49.798Z,3.20
2023-02-03T07:13:51.367Z,3.20
2023-02-03T07:17:54.038Z,3.03
2023-02-03T07:21:55.185Z,2.70
2023-02-03T07:25:58.635Z,2.70
2023-02-03T07:29:59.805Z,2.63
2023-02-03T07:34:02.220Z,2.63
2023-02-03T07:38:03.366Z,2.67
2023-02-03T07:42:04.572Z,2.10
2023-02-03T07:46:07.683Z,2.80
2023-02-03T07:50:10.907Z,2.30
2023-02-03T07:54:12.190Z,2.10
2023-02-03T07:58:14.325Z,2.80
2023-02-03T08:02:15.472Z,2.87
2023-02-03T08:06:16.662Z,2.67
2023-02-03T08:10:18.754Z,3.00
2023-02-03T08:14:19.905Z,2.70
2023-02-03T08:18:21.769Z,2.80
2023-02-03T08:22:24.327Z,2.30
2023-02-03T08:26:25.425Z,2.17
2023-02-03T08:30:26.825Z,2.90
2023-02-03T08:34:33.112Z,2.83
2023-02-03T08:38:34.275Z,2.30
2023-02-03T08:42:35.420Z,2.00
2023-02-03T08:46:38.481Z,2.87
2023-02-03T08:50:44.014Z,2.40
2023-02-03T08:54:46.478Z,2.97
2023-02-03T08:58:47.614Z,2.97
2023-02-03T09:02:48.753Z,2.30
2023-02-03T09:06:51.293Z,2.30
2023-02-03T09:10:52.476Z,2.03
2023-02-03T09:14:53.613Z,2.20
2023-02-03T09:18:54.782Z,2.13
2023-02-03T09:22:58.825Z,2.90
2023-02-03T09:27:00.774Z,2.27
2023-02-03T09:31:04.205Z,2.63
2023-02-03T09:35:06.011Z,2.17
2023-02-03T09:39:07.168Z,2.70
2023-02-03T09:43:29.460Z,2.27
2023-02-03T09:47:34.360Z,1.97
2023-02-03T09:51:48.730Z,1.90
2023-02-03T09:55:50.238Z,2.07
2023-02-03T09:59:53.902Z,2.03
2023-02-03T10:04:02.068Z,2.43
2023-02-03T10:08:37.605Z,1.67
2023-02-03T10:12:48.602Z,1.90
2023-02-03T10:17:02.604Z,1.47
2023-02-03T10:21:33.730Z,1.50
2023-02-03T10:25:41.761Z,2.00
2023-02-03T10:29:43.471Z,2.00
2023-02-03T10:33:46.553Z,2.03
2023-02-03T10:37:51.528Z,2.00
2023-02-03T10:41:53.277Z,2.03
2023-02-03T10:45:54.538Z,1.87
2023-02-03T10:49:57.892Z,1.60
2023-02-03T10:53:59.735Z,2.03
2023-02-03T10:58:04.694Z,1.90
2023-02-03T11:02:12.763Z,1.53
2023-02-03T11:06:16.153Z,2.00
2023-02-03T11:10:34.890Z,1.40
2023-02-03T11:14:43.466Z,1.07
2023-02-03T11:19:00.454Z,1.60
2023-02-03T11:23:04.127Z,1.60
2023-02-03T11:27:15.405Z,2.77
2023-02-03T11:31:20.260Z,1.40
2023-02-03T11:35:26.614Z,1.47
2023-02-03T11:39:31.793Z,1.90
2023-02-03T11:43:33.426Z,1.50
2023-02-03T11:47:34.660Z,1.60
2023-02-03T11:52:00.568Z,1.20
2023-02-03T11:56:40.795Z,1.70
2023-02-03T12:01:01.181Z,1.20
2023-02-03T12:05:29.015Z,1.90
2023-02-03T12:09:33.977Z,1.10
2023-02-03T12:13:48.290Z,1.00
2023-02-03T12:18:11.921Z,1.63
2023-02-03T12:22:31.854Z,1.00
2023-02-03T12:26:39.938Z,1.03
2023-02-03T12:30:44.980Z,1.00
2023-02-03T12:34:55.775Z,1.00
2023-02-03T12:39:02.200Z,1.10
2023-02-03T12:43:23.861Z,1.33
2023-02-03T12:47:28.952Z,1.47
2023-02-03T12:51:48.827Z,0.93
2023-02-03T12:56:10.284Z,0.90
2023-02-03T13:00:15.381Z,0.77
2023-02-03T13:04:32.644Z,0.97
2023-02-03T13:08:37.650Z,1.30
2023-02-03T13:12:48.697Z,1.20
2023-02-03T13:16:56.266Z,1.07
2023-02-03T13:20:57.514Z,1.30
2023-02-03T13:25:02.552Z,1.13
2023-02-03T13:29:25.392Z,1.10
2023-02-03T13:33:30.369Z,1.23
2023-02-03T13:37:52.328Z,1.40
2023-02-03T13:41:56.763Z,1.43
2023-02-03T13:45:58.236Z,1.30
2023-02-03T13:50:02.771Z,0.93
2023-02-03T13:54:07.013Z,1.13
2023-02-03T13:58:14.561Z,1.87
2023-02-03T14:02:22.666Z,2.37
2023-02-03T14:06:44.847Z,2.33
2023-02-03T14:10:45.999Z,1.47
2023-02-03T14:14:54.182Z,1.10
2023-02-03T14:18:56.212Z,1.80
2023-02-03T14:23:06.657Z,2.30
2023-02-03T14:27:20.143Z,4.80
2023-02-03T14:31:23.422Z,5.30
2023-02-03T14:35:34.085Z,3.70
2023-02-03T14:39:54.528Z,2.63
2023-02-03T14:44:11.844Z,2.13
2023-02-03T14:48:22.841Z,2.23
2023-02-03T14:52:47.096Z,2.20
2023-02-03T14:57:25.702Z,1.00
2023-02-03T15:01:36.343Z,0.87
2023-02-03T15:05:50.900Z,1.10
2023-02-03T15:09:55.634Z,1.23
2023-02-03T15:14:19.411Z,1.00
2023-02-03T15:18:24.068Z,1.33
2023-02-03T15:22:29.832Z,1.03
2023-02-03T15:26:32.331Z,1.57
2023-02-03T15:30:33.818Z,0.87
2023-02-03T15:34:44.935Z,0.90
2023-02-03T15:38:49.862Z,0.90
2023-02-03T15:43:03.120Z,1.20
2023-02-03T15:47:07.308Z,1.07
2023-02-03T15:51:20.970Z,0.70
2023-02-03T15:55:38.367Z,1.00
2023-02-03T15:59:46.721Z,0.93
2023-02-03T16:03:52.102Z,1.10
2023-02-03T16:07:53.373Z,1.27
2023-02-03T16:12:24.270Z,1.10
2023-02-03T16:16:29.159Z,1.37
2023-02-03T16:20:32.381Z,1.47
2023-02-03T16:24:40.261Z,1.80
2023-02-03T16:29:01.005Z,5.17
2023-02-03T16:33:30.961Z,2.23
2023-02-03T16:37:54.292Z,2.20
2023-02-03T16:42:17.334Z,1.77
2023-02-03T16:46:37.202Z,1.27
2023-02-03T16:50:53.480Z,1.93
2023-02-03T16:54:55.113Z,1.93
2023-02-03T16:58:56.495Z,1.37
2023-02-03T17:02:58.683Z,1.53
2023-02-03T17:07:00.134Z,1.10
2023-02-03T17:11:14.838Z,1.50
2023-02-03T17:15:16.127Z,1.57
2023-02-03T17:19:18.014Z,2.20
2023-02-03T17:23:20.691Z,1.57
2023-02-03T17:27:22.379Z,2.00
2023-02-03T17:31:24.446Z,2.00
2023-02-03T17:35:26.332Z,1.73
2023-02-03T17:56:49.997Z,5.13
2023-02-03T18:00:51.677Z,3.70
2023-02-03T18:04:53.323Z,3.80
2023-02-03T18:08:57.392Z,3.80
2023-02-03T18:12:59.429Z,3.13
2023-02-03T18:17:01.033Z,2.90
2023-02-03T18:21:07.542Z,3.10
2023-02-03T18:25:09.536Z,2.80
2023-02-03T18:29:12.028Z,3.00
2023-02-03T18:33:13.988Z,7.70
2023-02-03T18:37:15.124Z,4.00
2023-02-03T18:41:24.501Z,4.00
2023-02-03T18:45:26.008Z,4.17
2023-02-03T18:49:27.416Z,4.60
2023-02-03T18:53:29.170Z,4.70
2023-02-03T18:57:30.590Z,4.80
2023-02-03T19:01:32.983Z,4.60
2023-02-03T19:05:34.921Z,4.90
2023-02-03T19:09:36.893Z,4.60
2023-02-03T19:13:38.457Z,4.30
2023-02-03T19:17:39.793Z,5.80
2023-02-03T19:21:41.100Z,3.97
2023-02-03T19:25:42.388Z,4.27
2023-02-03T19:29:43.930Z,4.17
2023-02-03T19:33:45.493Z,4.70
2023-02-03T19:37:47.166Z,4.30
2023-02-03T19:41:48.735Z,4.40
2023-02-03T19:45:52.818Z,5.00
2023-02-03T19:49:54.168Z,4.60
2023-02-03T19:53:56.033Z,4.57
2023-02-03T19:57:59.513Z,4.43
2023-02-03T20:02:12.514Z,4.20
2023-02-03T20:06:04.836Z,5.47
2023-02-03T20:10:06.821Z,3.60
2023-02-03T20:14:09.164Z,4.10
2023-02-03T20:18:13.810Z,4.07
2023-02-03T20:22:16.040Z,3.90
2023-02-03T20:26:17.929Z,3.97
2023-02-03T20:30:19.518Z,4.00
2023-02-03T20:34:22.690Z,5.10
2023-02-03T20:38:27.486Z,4.27
2023-02-03T20:42:28.921Z,4.13
2023-02-03T20:46:30.334Z,4.20
2023-02-03T20:51:23.542Z,4.00
2023-02-03T20:54:57.787Z,4.60
2023-02-03T20:59:02.561Z,4.57
2023-02-03T21:03:29.318Z,4.63
2023-02-03T21:07:41.805Z,5.20
2023-02-03T21:11:48.341Z,6.17
2023-02-03T21:15:59.940Z,5.80
2023-02-03T21:20:15.227Z,4.30
2023-02-03T21:24:34.073Z,5.40
2023-02-03T21:28:38.959Z,4.50
2023-02-03T21:32:40.703Z,5.00
2023-02-03T21:36:42.189Z,5.53
2023-02-03T21:40:45.811Z,5.43
2023-02-03T21:44:47.689Z,5.97
2023-02-03T21:49:00.752Z,5.27
2023-02-03T21:53:09.549Z,5.17
2023-02-03T21:57:15.214Z,6.03
2023-02-03T22:01:25.121Z,4.00
2023-02-03T22:05:30.679Z,5.77
2023-02-03T22:09:33.007Z,4.80
2023-02-03T22:13:34.758Z,5.33
2023-02-03T22:17:36.236Z,5.77
2023-02-03T22:21:37.834Z,5.20
2023-02-03T22:25:39.366Z,5.60
2023-02-03T22:29:41.275Z,5.30
2023-02-03T22:33:42.904Z,4.17
2023-02-03T22:37:44.275Z,5.80
2023-02-03T22:41:45.556Z,5.70
2023-02-03T22:45:47.163Z,4.30
2023-02-03T22:49:49.236Z,5.30
2023-02-03T22:53:52.232Z,5.57
2023-02-03T22:57:54.296Z,4.30
2023-02-03T23:01:56.070Z,4.43
2023-02-03T23:05:57.810Z,4.67
2023-02-03T23:09:59.992Z,5.40
2023-02-03T23:14:01.564Z,4.30
2023-02-03T23:18:03.181Z,5.33
2023-02-03T23:22:04.428Z,5.53
2023-02-03T23:26:05.806Z,5.27
2023-02-03T23:30:07.979Z,4.33
2023-02-03T23:34:28.326Z,4.03
2023-02-03T23:38:30.144Z,4.30
2023-02-03T23:42:31.493Z,3.80
2023-02-03T23:46:32.843Z,3.77
2023-02-03T23:50:34.415Z,5.20
2023-02-03T23:54:35.753Z,4.43
2023-02-03T23:58:37.312Z,5.50
